Astrid — OFLT — position and weather

sailwx.info

Track history (hours):
 
Tides and Currents Weather Stations Pressure Air Temp Water Temp Dewpoint Dewpoint Depression Visibility Wind Speed Wind Dir Waves Ship Positions

Astrid

Last reported at 2016-Jul-20 08:13 UTC. Time now 2016-Jul-24 02:56 UTC.
Position N 59°43' E 023°02'.

Length 25 m; draft 2.3 m.

Type: Sailing vessel. MMSI: 230998670.

Date/timePositionNaut miles runAvg speedWind from/ knotsBaromVisibWave heightAir tempDewpointWater temp
2016-Jul-20 08:13N 59°43' E 023°02'3 3.7
2016-Jul-20 07:28N 59°43' E 023°07'2 2.1
2016-Jul-20 06:34N 59°44' E 023°11'3 2.8
2016-Jul-20 05:33N 59°43' E 023°17'4 4.1
2016-Jul-20 04:33N 59°43' E 023°25'5 4.9
2016-Jul-20 03:33N 59°44' E 023°34'6 5.8
2016-Jul-20 02:33N 59°46' E 023°45'5 5.2
2016-Jul-20 01:32N 59°47' E 023°55'5 4.3
2016-Jul-20 00:24N 59°49' E 024°05'  
2016-Jul-17 19:06N 59°43' E 024°48'4 7.5
2016-Jul-17 18:33N 59°39' E 024°44'7 7.0
2016-Jul-17 17:33N 59°32' E 024°44'6 5.8
2016-Jul-17 16:32N 59°27' E 024°46'3 2.8
2016-Jul-17 15:26N 59°29' E 024°48'3 1.6
2016-Jul-17 13:31N 59°27' E 024°46'2 1.8
2016-Jul-17 12:31N 59°28' E 024°45'0 0.0
2016-Jul-17 09:30N 59°28' E 024°45'1 1.5
2016-Jul-17 08:31N 59°27' E 024°47'1 0.2
2016-Jul-17 04:33N 59°27' E 024°46'0 0.0
2016-Jul-17 03:33N 59°27' E 024°46'0 0.0
2016-Jul-17 02:30N 59°27' E 024°46'0 0.0
2016-Jul-17 01:33N 59°27' E 024°46'0 0.0
2016-Jul-17 00:33N 59°27' E 024°46'0 0.0
2016-Jul-16 23:30N 59°27' E 024°46'0 0.0
2016-Jul-16 22:33N 59°27' E 024°46'0 0.0
2016-Jul-16 21:33N 59°27' E 024°46'0 0.0
2016-Jul-16 20:33N 59°27' E 024°46'0 0.0
2016-Jul-16 19:33N 59°27' E 024°46'0 0.0
2016-Jul-16 18:27N 59°27' E 024°46'0 0.0
2016-Jul-16 17:33N 59°27' E 024°46'0 0.3
2016-Jul-16 16:34N 59°27' E 024°46'2 2.0
2016-Jul-16 15:34N 59°29' E 024°46'2 2.2
2016-Jul-16 14:34N 59°27' E 024°46'1 0.6
2016-Jul-16 13:33N 59°27' E 024°46'0 0.4
2016-Jul-16 12:33N 59°27' E 024°46'1 0.8
2016-Jul-16 11:33N 59°28' E 024°46'1 0.9
2016-Jul-16 10:29N 59°27' E 024°46'2 2.1
2016-Jul-16 09:33N 59°28' E 024°44'2 1.6
2016-Jul-16 08:33N 59°27' E 024°46'1 0.7
2016-Jul-16 07:31N 59°27' E 024°46'0 0.0
2016-Jul-16 06:31N 59°27' E 024°46'0 0.0
2016-Jul-16 04:31N 59°27' E 024°46'0 0.0
2016-Jul-16 03:31N 59°27' E 024°46'0 0.0
2016-Jul-16 02:31N 59°27' E 024°46'0 0.0
2016-Jul-16 01:25N 59°27' E 024°46'0 0.0
2016-Jul-16 00:28N 59°27' E 024°46'0 0.0
2016-Jul-15 23:31N 59°27' E 024°46'0 0.0
2016-Jul-15 22:31N 59°27' E 024°46'0 0.0
2016-Jul-15 21:31N 59°27' E 024°46'0 0.0
2016-Jul-15 20:31N 59°27' E 024°46'0 0.0
2016-Jul-15 19:28N 59°27' E 024°46'0 0.0
2016-Jul-15 18:31N 59°27' E 024°46'1 0.7
2016-Jul-15 17:33N 59°27' E 024°47'1 0.5
2016-Jul-15 16:33N 59°27' E 024°47'1 0.7
2016-Jul-15 15:33N 59°28' E 024°48'2 1.6
2016-Jul-15 14:33N 59°27' E 024°46'1 0.6
2016-Jul-15 12:33N 59°28' E 024°45'2 1.6
2016-Jul-15 11:33N 59°28' E 024°48'2 1.7
2016-Jul-15 10:33N 59°27' E 024°46'1 1.4
2016-Jul-15 09:33N 59°28' E 024°47'0 0.4
2016-Jul-15 08:33N 59°27' E 024°47'1 1.1
2016-Jul-15 07:32N 59°27' E 024°46'0 0.0
2016-Jul-15 06:29N 59°27' E 024°46'0 0.0
2016-Jul-15 05:32N 59°27' E 024°46'0 0.0
2016-Jul-15 04:17N 59°27' E 024°46'0 0.0
2016-Jul-15 03:23N 59°27' E 024°46'0 0.0
2016-Jul-15 02:11N 59°27' E 024°46'0 0.0
2016-Jul-15 01:33N 59°27' E 024°46'0 0.0
2016-Jul-15 00:33N 59°27' E 024°46'0 0.0
2016-Jul-14 23:33N 59°27' E 024°46'0 0.0
2016-Jul-14 22:33N 59°27' E 024°46'0 0.0
2016-Jul-14 21:33N 59°27' E 024°46'2 2.3
2016-Jul-14 20:33N 59°29' E 024°46'7 7.2
2016-Jul-14 19:33N 59°35' E 024°40'7 6.5
2016-Jul-14 18:33N 59°42' E 024°39'7 7.2
2016-Jul-14 17:33N 59°49' E 024°43'7 7.2
2016-Jul-14 16:34N 59°55' E 024°49'  
2016-Jul-11 09:06N 59°59' E 023°56'3 6.3
2016-Jul-11 08:33N 59°57' E 023°50'6 5.9
2016-Jul-11 07:33N 59°54' E 023°41'2 1.9
2016-Jul-11 06:31N 59°55' E 023°39'0 0.0
2016-Jul-11 04:31N 59°55' E 023°39'0 0.0
2016-Jul-11 03:31N 59°55' E 023°39'0 0.0
2016-Jul-11 02:31N 59°55' E 023°39'0 0.0
2016-Jul-11 01:31N 59°55' E 023°39'0 0.0
2016-Jul-11 00:31N 59°55' E 023°39'0 0.0
2016-Jul-10 23:31N 59°55' E 023°39'0 0.0
2016-Jul-10 22:31N 59°55' E 023°39'0 0.0
2016-Jul-10 21:31N 59°55' E 023°39'0 0.0
2016-Jul-10 20:31N 59°55' E 023°39'0 0.0
2016-Jul-10 19:28N 59°55' E 023°39'0 0.0
2016-Jul-10 18:31N 59°55' E 023°39'0 0.0
2016-Jul-10 17:31N 59°55' E 023°39'0 0.0
2016-Jul-10 16:31N 59°55' E 023°39'0 0.0
2016-Jul-10 15:31N 59°55' E 023°39'1 0.6
2016-Jul-10 14:33N 59°55' E 023°38'5 5.3
2016-Jul-10 13:33N 59°50' E 023°34'8 7.6
2016-Jul-10 12:33N 59°49' E 023°19'  
Track history (hours):
 
Tides and Currents Weather Stations Pressure Air Temp Water Temp Dewpoint Dewpoint Depression Visibility Wind Speed Wind Dir Waves Ship Positions

Astrid

Last reported at 2016-Jul-20 08:13 UTC. Time now 2016-Jul-24 02:56 UTC.
Position N 59°43' E 023°02'.

Length 25 m; draft 2.3 m.

Type: Sailing vessel. MMSI: 230998670.

Date/timePositionNaut miles runAvg speedWind from/ knotsBaromVisibWave heightAir tempDewpointWater temp
2016-Jul-20 08:13N 59°43' E 023°02'3 3.7
2016-Jul-20 07:28N 59°43' E 023°07'2 2.1
2016-Jul-20 06:34N 59°44' E 023°11'3 2.8
2016-Jul-20 05:33N 59°43' E 023°17'4 4.1
2016-Jul-20 04:33N 59°43' E 023°25'5 4.9
2016-Jul-20 03:33N 59°44' E 023°34'6 5.8
2016-Jul-20 02:33N 59°46' E 023°45'5 5.2
2016-Jul-20 01:32N 59°47' E 023°55'5 4.3
2016-Jul-20 00:24N 59°49' E 024°05'  
2016-Jul-17 19:06N 59°43' E 024°48'4 7.5
2016-Jul-17 18:33N 59°39' E 024°44'7 7.0
2016-Jul-17 17:33N 59°32' E 024°44'6 5.8
2016-Jul-17 16:32N 59°27' E 024°46'3 2.8
2016-Jul-17 15:26N 59°29' E 024°48'3 1.6
2016-Jul-17 13:31N 59°27' E 024°46'2 1.8
2016-Jul-17 12:31N 59°28' E 024°45'0 0.0
2016-Jul-17 09:30N 59°28' E 024°45'1 1.5
2016-Jul-17 08:31N 59°27' E 024°47'1 0.2
2016-Jul-17 04:33N 59°27' E 024°46'0 0.0
2016-Jul-17 03:33N 59°27' E 024°46'0 0.0
2016-Jul-17 02:30N 59°27' E 024°46'0 0.0
2016-Jul-17 01:33N 59°27' E 024°46'0 0.0
2016-Jul-17 00:33N 59°27' E 024°46'0 0.0
2016-Jul-16 23:30N 59°27' E 024°46'0 0.0
2016-Jul-16 22:33N 59°27' E 024°46'0 0.0
2016-Jul-16 21:33N 59°27' E 024°46'0 0.0
2016-Jul-16 20:33N 59°27' E 024°46'0 0.0
2016-Jul-16 19:33N 59°27' E 024°46'0 0.0
2016-Jul-16 18:27N 59°27' E 024°46'0 0.0
2016-Jul-16 17:33N 59°27' E 024°46'0 0.3
2016-Jul-16 16:34N 59°27' E 024°46'2 2.0
2016-Jul-16 15:34N 59°29' E 024°46'2 2.2
2016-Jul-16 14:34N 59°27' E 024°46'1 0.6
2016-Jul-16 13:33N 59°27' E 024°46'0 0.4
2016-Jul-16 12:33N 59°27' E 024°46'1 0.8
2016-Jul-16 11:33N 59°28' E 024°46'1 0.9
2016-Jul-16 10:29N 59°27' E 024°46'2 2.1
2016-Jul-16 09:33N 59°28' E 024°44'2 1.6
2016-Jul-16 08:33N 59°27' E 024°46'1 0.7
2016-Jul-16 07:31N 59°27' E 024°46'0 0.0
2016-Jul-16 06:31N 59°27' E 024°46'0 0.0
2016-Jul-16 04:31N 59°27' E 024°46'0 0.0
2016-Jul-16 03:31N 59°27' E 024°46'0 0.0
2016-Jul-16 02:31N 59°27' E 024°46'0 0.0
2016-Jul-16 01:25N 59°27' E 024°46'0 0.0
2016-Jul-16 00:28N 59°27' E 024°46'0 0.0
2016-Jul-15 23:31N 59°27' E 024°46'0 0.0
2016-Jul-15 22:31N 59°27' E 024°46'0 0.0
2016-Jul-15 21:31N 59°27' E 024°46'0 0.0
2016-Jul-15 20:31N 59°27' E 024°46'0 0.0
2016-Jul-15 19:28N 59°27' E 024°46'0 0.0
2016-Jul-15 18:31N 59°27' E 024°46'1 0.7
2016-Jul-15 17:33N 59°27' E 024°47'1 0.5
2016-Jul-15 16:33N 59°27' E 024°47'1 0.7
2016-Jul-15 15:33N 59°28' E 024°48'2 1.6
2016-Jul-15 14:33N 59°27' E 024°46'1 0.6
2016-Jul-15 12:33N 59°28' E 024°45'2 1.6
2016-Jul-15 11:33N 59°28' E 024°48'2 1.7
2016-Jul-15 10:33N 59°27' E 024°46'1 1.4
2016-Jul-15 09:33N 59°28' E 024°47'0 0.4
2016-Jul-15 08:33N 59°27' E 024°47'1 1.1
2016-Jul-15 07:32N 59°27' E 024°46'0 0.0
2016-Jul-15 06:29N 59°27' E 024°46'0 0.0
2016-Jul-15 05:32N 59°27' E 024°46'0 0.0
2016-Jul-15 04:17N 59°27' E 024°46'0 0.0
2016-Jul-15 03:23N 59°27' E 024°46'0 0.0
2016-Jul-15 02:11N 59°27' E 024°46'0 0.0
2016-Jul-15 01:33N 59°27' E 024°46'0 0.0
2016-Jul-15 00:33N 59°27' E 024°46'0 0.0
2016-Jul-14 23:33N 59°27' E 024°46'0 0.0
2016-Jul-14 22:33N 59°27' E 024°46'0 0.0
2016-Jul-14 21:33N 59°27' E 024°46'2 2.3
2016-Jul-14 20:33N 59°29' E 024°46'7 7.2
2016-Jul-14 19:33N 59°35' E 024°40'7 6.5
2016-Jul-14 18:33N 59°42' E 024°39'7 7.2
2016-Jul-14 17:33N 59°49' E 024°43'7 7.2
2016-Jul-14 16:34N 59°55' E 024°49'  
2016-Jul-11 09:06N 59°59' E 023°56'3 6.3
2016-Jul-11 08:33N 59°57' E 023°50'6 5.9
2016-Jul-11 07:33N 59°54' E 023°41'2 1.9
2016-Jul-11 06:31N 59°55' E 023°39'0 0.0
2016-Jul-11 04:31N 59°55' E 023°39'0 0.0
2016-Jul-11 03:31N 59°55' E 023°39'0 0.0
2016-Jul-11 02:31N 59°55' E 023°39'0 0.0
2016-Jul-11 01:31N 59°55' E 023°39'0 0.0
2016-Jul-11 00:31N 59°55' E 023°39'0 0.0
2016-Jul-10 23:31N 59°55' E 023°39'0 0.0
2016-Jul-10 22:31N 59°55' E 023°39'0 0.0
2016-Jul-10 21:31N 59°55' E 023°39'0 0.0
2016-Jul-10 20:31N 59°55' E 023°39'0 0.0
2016-Jul-10 19:28N 59°55' E 023°39'0 0.0
2016-Jul-10 18:31N 59°55' E 023°39'0 0.0
2016-Jul-10 17:31N 59°55' E 023°39'0 0.0
2016-Jul-10 16:31N 59°55' E 023°39'0 0.0
2016-Jul-10 15:31N 59°55' E 023°39'1 0.6
2016-Jul-10 14:33N 59°55' E 023°38'5 5.3
2016-Jul-10 13:33N 59°50' E 023°34'8 7.6
2016-Jul-10 12:33N 59°49' E 023°19'  

Dump ship's entire track history